Latest Weather Observations for Warragul (Nilma North)

IDV60801

Issued at 9:02 am EDT Sunday 29 March 2015 (issued every 30 minutes, with the page automatically refreshed every 10 minutes)

About weather observations | Map of weather stations | Latest weather observations for VIC | Other Formats
Station Details ID: 085313 Name: NILMA NORTH (WARRAGUL) Lat: -38.13 Lon: 145.99 Height: 134.11 m
Data from the previous 72 hours. | See also: Recent months for locations in Victoria
Date/Time
EDT
Temp
°C
App
Temp
°C
Dew
Point
Rel
Hum
%
Delta-T
°C
Wind Press
QNH
hPa
Press
MSL
hPa
Rain
since 9 am
mm
Dir
 
Spd
km/h
Gust
km/h
Spd
kts
Gust
kts
29/09:00am 7.7 6.8 7.6 99 0.0 E 2 4 1 2 1023.1 1022.8 0.2
29/08:30am 6.0 5.1 5.9 99 0.0 CALM 0 0 0 0 1023.1 1022.8 0.2
29/08:00am 4.7 3.5 4.6 99 0.0 CALM 0 0 0 0 1022.9 1022.6 0.2
29/07:30am 4.4 2.8 4.3 99 0.0 NE 2 4 1 2 1022.4 1022.1 0.2
29/07:00am 4.6 3.4 4.5 99 0.0 CALM 0 0 0 0 1022.1 1021.8 0.2
29/06:30am 4.9 3.7 4.8 99 0.0 CALM 0 0 0 0 1021.8 1021.5 0.2
29/06:00am 4.8 3.6 4.7 99 0.0 CALM 0 0 0 0 1021.4 1021.1 0.2
29/05:30am 5.3 4.2 5.2 99 0.0 CALM 0 0 0 0 1021.0 1020.8 0.2
29/05:00am 5.4 4.3 5.3 99 0.0 CALM 0 0 0 0 1020.9 1020.7 0.2
29/04:30am 5.1 3.9 4.8 98 0.1 CALM 0 0 0 0 1020.6 1020.4 0.2
29/04:00am 5.0 3.8 4.7 98 0.1 CALM 0 0 0 0 1020.7 1020.5 0.2
29/03:30am 6.2 5.3 5.9 98 0.1 CALM 0 0 0 0 1021.0 1020.8 0.2
29/03:00am 6.8 6.0 6.7 99 0.0 CALM 0 0 0 0 1021.4 1021.1 0.0
29/02:30am 6.1 5.1 5.8 98 0.1 CALM 0 0 0 0 1021.7 1021.4 0.0
29/02:00am 7.5 6.9 7.2 98 0.1 CALM 0 0 0 0 1022.0 1021.7 0.0
29/01:30am 7.8 7.2 7.5 98 0.1 CALM 0 0 0 0 1022.2 1021.9 0.0
29/01:00am 8.5 8.1 8.2 98 0.1 CALM 0 0 0 0 1022.3 1022.0 0.0
29/12:30am 8.1 7.2 7.7 97 0.2 W 2 2 1 1 1022.3 1022.0 0.0
29/12:00am 8.6 8.2 8.2 97 0.2 CALM 0 0 0 0 1022.5 1022.2 0.0
 
Date/Time
EDT
Temp
°C
App
Temp
°C
Dew
Point
Rel
Hum
%
Delta-T
°C
Wind Press
QNH
hPa
Press
MSL
hPa
Rain
since 9 am
mm
Dir
 
Spd
km/h
Gust
km/h
Spd
kts
Gust
kts
28/11:30pm 8.9 8.5 8.3 96 0.3 CALM 0 0 0 0 1022.5 1022.2 0.0
28/11:00pm 9.5 9.3 9.0 97 0.2 CALM 0 0 0 0 1022.5 1022.2 0.0
28/10:30pm 9.1 8.7 8.3 95 0.4 CALM 0 0 0 0 1022.6 1022.3 0.0
28/10:00pm 10.4 10.3 9.6 95 0.4 CALM 0 0 0 0 1022.6 1022.3 0.0
28/09:30pm 9.9 9.7 9.0 94 0.4 CALM 0 2 0 1 1022.7 1022.4 0.0
28/09:00pm 10.6 10.5 9.5 93 0.6 CALM 0 2 0 1 1022.6 1022.3 0.0
28/08:30pm 11.5 11.5 9.9 90 0.8 CALM 0 0 0 0 1022.6 1022.3 0.0
28/08:00pm 12.4 12.6 10.5 88 1.0 CALM 0 0 0 0 1022.5 1022.2 0.0
28/07:30pm 13.0 13.2 10.4 84 1.4 CALM 0 2 0 1 1022.5 1022.2 0.0
28/07:00pm 14.7 14.2 10.9 78 2.0 WSW 4 6 2 3 1022.4 1022.1 0.0
28/06:30pm 15.0 14.3 11.4 79 1.9 WSW 6 9 3 5 1022.4 1022.1 0.0
28/06:00pm 14.9 14.3 11.7 81 1.7 WSW 6 11 3 6 1022.5 1022.2 0.0
28/05:30pm 14.5 13.5 11.1 80 1.8 W 7 11 4 6 1022.7 1022.4 0.0
28/05:00pm 14.7 13.9 11.7 82 1.6 W 7 13 4 7 1022.9 1022.6 0.0
28/04:30pm 14.4 13.8 11.7 84 1.5 WSW 6 9 3 5 1023.1 1022.8 0.0
28/04:00pm 14.3 13.4 11.5 83 1.5 W 7 13 4 7 1023.3 1023.0 0.0
28/03:30pm 14.8 13.5 11.4 80 1.8 WSW 9 15 5 8 1023.5 1023.2 0.0
28/03:00pm 15.4 13.6 10.8 74 2.4 W 11 17 6 9 1023.5 1023.2 0.0
28/02:30pm 15.3 14.2 10.7 74 2.4 WSW 7 11 4 6 1023.8 1023.5 0.0
28/02:00pm 14.9 13.4 10.7 76 2.2 W 9 13 5 7 1024.0 1023.7 0.0
28/01:30pm 14.7 13.3 10.9 78 2.0 W 9 13 5 7 1024.5 1024.2 0.0
28/01:00pm 15.1 13.4 11.1 77 2.1 WNW 11 17 6 9 1024.7 1024.4 0.0
28/12:30pm 14.8 13.1 11.2 79 1.9 WNW 11 19 6 10 1025.0 1024.7 0.0
28/12:00pm 14.4 13.5 11.2 81 1.7 W 7 11 4 6 1025.1 1024.8 0.0
28/11:30am 14.5 13.7 11.1 80 1.8 NW 6 9 3 5 1025.2 1024.9 0.0
28/11:00am 13.4 11.4 11.5 88 1.0 WNW 13 19 7 10 1025.6 1025.3 0.0
28/10:30am 13.4 12.1 11.1 86 1.2 W 9 13 5 7 1025.8 1025.5 0.0
28/10:00am 13.1 11.3 10.8 86 1.2 WNW 11 17 6 9 1025.8 1025.5 0.0
28/09:30am 12.9 11.8 10.8 87 1.1 WNW 7 13 4 7 1025.6 1025.3 0.0
28/09:00am 12.4 11.3 10.6 89 0.9 WNW 7 13 4 7 1025.4 1025.1 8.4
28/08:30am 11.7 11.1 10.4 92 0.7 NW 4 6 2 3 1024.9 1024.6 8.4
28/08:00am 11.2 10.9 10.1 93 0.6 WNW 2 6 1 3 1024.7 1024.4 8.4
28/07:30am 11.0 9.9 9.9 93 0.6 WNW 6 7 3 4 1024.5 1024.2 8.4
28/07:00am 10.6 10.1 9.4 92 0.6 WNW 2 4 1 2 1024.2 1023.9 8.4
28/06:30am 10.8 9.9 9.4 91 0.7 WNW 4 6 2 3 1024.1 1023.8 8.4
28/06:00am 10.9 10.1 9.8 93 0.6 WNW 4 6 2 3 1024.0 1023.7 8.4
28/05:30am 11.0 10.3 9.9 93 0.6 WNW 4 7 2 4 1023.8 1023.5 8.4
28/05:00am 11.2 10.6 10.3 94 0.5 WNW 4 7 2 4 1023.7 1023.4 8.4
28/04:30am 11.4 11.2 10.5 94 0.5 WNW 2 6 1 3 1023.6 1023.3 8.4
28/04:00am 11.4 11.2 10.5 94 0.5 NW 2 4 1 2 1023.6 1023.3 8.4
28/03:30am 11.5 11.7 10.6 94 0.5 CALM 0 2 0 1 1023.7 1023.4 8.4
28/03:00am 11.4 10.8 10.5 94 0.5 NW 4 7 2 4 1023.7 1023.4 8.4
28/02:30am 11.4 10.5 10.6 95 0.4 WNW 6 7 3 4 1023.9 1023.6 8.4
28/02:00am 11.2 10.6 10.4 95 0.4 WNW 4 7 2 4 1023.8 1023.5 8.2
28/01:30am 11.2 10.6 10.4 95 0.4 WNW 4 6 2 3 1023.9 1023.6 8.2
28/01:00am 11.1 10.1 10.3 95 0.4 WNW 6 9 3 5 1024.0 1023.7 8.0
28/12:30am 11.6 9.8 10.7 94 0.5 WNW 11 15 6 8 1024.2 1023.9 8.0
28/12:00am 11.6 10.1 10.5 93 0.6 W 9 11 5 6 1024.2 1023.9 7.6
 
Date/Time
EDT
Temp
°C
App
Temp
°C
Dew
Point
Rel
Hum
%
Delta-T
°C
Wind Press
QNH
hPa
Press
MSL
hPa
Rain
since 9 am
mm
Dir
 
Spd
km/h
Gust
km/h
Spd
kts
Gust
kts
27/11:30pm 11.8 10.7 10.7 93 0.6 W 7 13 4 7 1024.3 1024.0 7.6
27/11:00pm 12.0 9.7 10.4 90 0.8 W 13 15 7 8 1024.2 1023.9 7.2
27/10:30pm 11.8 10.6 10.2 90 0.8 WNW 7 13 4 7 1024.1 1023.8 7.2
27/10:00pm 11.8 10.7 10.0 89 0.9 WNW 6 11 3 6 1024.1 1023.8 7.2
27/09:30pm 12.0 9.6 10.2 89 0.9 WNW 13 19 7 10 1024.1 1023.8 7.2
27/09:00pm 12.0 9.6 10.1 88 1.0 WNW 13 20 7 11 1023.8 1023.5 7.2
27/08:30pm 12.2 9.9 10.6 90 0.8 WNW 13 20 7 11 1023.7 1023.4 7.2
27/08:00pm 12.3 10.5 10.7 90 0.8 W 11 19 6 10 1023.4 1023.1 7.2
27/07:30pm 12.2 10.0 10.8 91 0.7 W 13 17 7 9 1023.2 1022.9 7.2
27/07:00pm 12.3 8.8 10.9 91 0.7 W 20 33 11 18 1022.8 1022.5 7.2
27/06:30pm 12.4 9.3 11.5 94 0.5 W 19 28 10 15 1022.6 1022.3 7.0
27/06:00pm 12.4 9.1 11.6 95 0.4 W 20 30 11 16 1022.4 1022.1 7.0
27/05:30pm 12.4 9.3 11.6 95 0.4 W 19 28 10 15 1022.2 1021.9 6.6
27/05:00pm 12.4 10.3 11.3 93 0.6 W 13 22 7 12 1022.1 1021.8 5.6
27/04:30pm 12.6 9.2 11.2 91 0.7 WNW 20 32 11 17 1021.8 1021.5 4.4
27/04:00pm 13.2 9.1 11.4 89 1.0 WNW 24 35 13 19 1021.7 1021.4 4.0
27/03:30pm 12.6 8.5 11.3 92 0.7 W 24 35 13 19 1022.0 1021.7 4.0
27/03:00pm 12.5 8.6 10.9 90 0.8 W 22 39 12 21 1022.0 1021.7 3.8
27/02:30pm 13.2 7.7 10.6 84 1.4 W 30 61 16 33 1021.9 1021.6 3.8
27/02:22pm 13.4 7.2 10.2 81 1.7 W 33 59 18 32 1021.7 1021.4 3.8
27/02:00pm 13.8 8.4 11.0 83 1.5 W 30 43 16 23 1021.7 1021.4 3.8
27/01:35pm 13.6 8.7 11.3 86 1.2 W 28 46 15 25 1021.9 1021.6 3.8
27/01:30pm 13.1 8.5 11.0 87 1.1 W 26 37 14 20 1022.0 1021.7 3.8
27/01:00pm 13.6 8.4 10.2 80 1.8 W 28 46 15 25 1021.8 1021.5 3.4
27/12:30pm 12.9 7.6 11.1 89 1.0 W 30 46 16 25 1021.6 1021.3 3.4
27/12:00pm 12.4 6.5 11.1 92 0.7 W 33 56 18 30 1021.4 1021.1 3.2
27/11:54am 12.5 6.9 11.4 93 0.6 WNW 32 56 17 30 1021.4 1021.1 3.2
27/11:30am 12.3 6.7 11.4 94 0.5 WNW 32 48 17 26 1021.5 1021.2 2.8
27/11:04am 12.0 6.3 11.2 95 0.4 WNW 32 50 17 27 1021.5 1021.2 2.8
27/11:00am 12.0 6.3 11.2 95 0.4 WNW 32 46 17 25 1021.4 1021.1 2.8
27/10:30am 11.8 6.4 11.0 95 0.4 WNW 30 48 16 26 1020.8 1020.6 2.6
27/10:00am 11.7 6.3 10.9 95 0.4 W 30 50 16 27 1020.5 1020.3 1.4
27/09:33am 11.8 6.4 10.9 94 0.5 WNW 30 48 16 26 1020.2 1020.0 0.6
27/09:30am 11.7 5.9 10.8 94 0.5 WNW 32 48 17 26 1020.2 1020.0 0.6
27/09:00am 11.6 6.1 10.7 94 0.5 WNW 30 50 16 27 1019.7 1019.4 21.0
27/08:31am 11.7 6.7 10.8 94 0.5 W 28 46 15 25 1019.5 1019.2 20.0
27/08:30am 11.7 6.7 10.8 94 0.5 W 28 41 15 22 1019.5 1019.2 20.0
27/08:03am 11.6 5.6 10.7 94 0.5 W 33 52 18 28 1019.2 1018.9 19.6
27/08:00am 11.6 5.2 10.7 94 0.5 W 35 52 19 28 1019.0 1018.7 19.6
27/07:42am 11.6 6.1 10.5 93 0.6 WNW 30 48 16 26 1018.7 1018.4 19.6
27/07:30am 11.4 6.7 10.5 94 0.5 WNW 26 39 14 21 1018.5 1018.2 19.4
27/07:00am 11.5 6.0 10.4 93 0.6 WNW 30 44 16 24 1018.1 1017.8 19.0
27/06:30am 11.4 7.0 10.3 93 0.6 WNW 24 41 13 22 1017.8 1017.5 19.0
27/06:04am 11.4 5.9 10.5 94 0.5 WNW 30 57 16 31 1017.5 1017.2 18.8
27/06:00am 11.4 5.9 10.5 94 0.5 WNW 30 46 16 25 1017.5 1017.2 18.8
27/05:54am 11.4 6.3 10.5 94 0.5 WNW 28 46 15 25 1017.4 1017.1 18.8
27/05:30am 10.9 6.3 9.8 93 0.6 W 24 33 13 18 1017.6 1017.3 18.4
27/05:00am 11.5 7.9 10.6 94 0.5 W 20 35 11 19 1017.7 1017.4 16.6
27/04:30am 11.7 7.3 10.4 92 0.7 WNW 24 41 13 22 1017.0 1016.7 12.4
27/04:18am 11.7 6.5 10.4 92 0.7 WNW 28 48 15 26 1016.9 1016.6 12.4
27/04:00am 11.7 7.0 10.6 93 0.6 WNW 26 41 14 22 1016.9 1016.6 12.0
27/03:30am 11.6 6.9 10.7 94 0.5 W 26 39 14 21 1016.8 1016.5 11.4
27/03:00am 11.3 6.5 10.2 93 0.6 WNW 26 43 14 23 1017.0 1016.7 11.0
27/02:30am 11.3 7.7 9.7 90 0.8 WNW 19 32 10 17 1016.6 1016.3 10.0
27/02:00am 11.6 8.0 9.9 89 0.9 WNW 19 32 10 17 1016.6 1016.3 8.4
27/01:30am 11.9 7.7 9.6 86 1.2 WNW 22 39 12 21 1016.4 1016.1 8.2
27/01:00am 11.3 8.5 9.9 91 0.7 WNW 15 32 8 17 1016.6 1016.3 7.8
27/12:30am 11.6 7.0 9.5 87 1.1 WNW 24 39 13 21 1016.7 1016.4 7.0
27/12:00am 11.4 7.5 9.5 88 1.0 WNW 20 35 11 19 1016.5 1016.2 6.4
 
Date/Time
EDT
Temp
°C
App
Temp
°C
Dew
Point
Rel
Hum
%
Delta-T
°C
Wind Press
QNH
hPa
Press
MSL
hPa
Rain
since 9 am
mm
Dir
 
Spd
km/h
Gust
km/h
Spd
kts
Gust
kts
26/11:30pm 11.3 7.6 9.4 88 1.0 WNW 19 33 10 18 1016.4 1016.1 5.4
26/11:00pm 10.9 7.2 9.3 90 0.8 WNW 19 35 10 19 1016.5 1016.2 5.4
26/10:30pm 10.7 7.3 9.3 91 0.7 WNW 17 28 9 15 1016.7 1016.4 5.4
26/10:00pm 10.8 7.0 9.1 89 0.8 WNW 19 35 10 19 1016.4 1016.1 4.4
26/09:30pm 11.3 6.8 8.5 83 1.4 WNW 22 35 12 19 1016.3 1016.0 3.6
26/09:00pm 11.5 7.0 8.4 81 1.5 WNW 22 43 12 23 1015.8 1015.5 3.2
26/08:30pm 11.1 7.0 8.0 81 1.5 NW 19 32 10 17 1015.8 1015.5 3.0
26/08:00pm 11.4 7.1 7.1 75 2.1 NW 19 32 10 17 1015.7 1015.4 2.4
26/07:30pm 10.6 6.7 7.1 79 1.7 NNW 17 26 9 14 1015.8 1015.5 2.4
26/07:00pm 10.4 7.8 7.6 83 1.4 WNW 11 28 6 15 1016.4 1016.1 1.8
26/06:30pm 11.3 7.3 6.8 74 2.2 WNW 17 30 9 16 1015.9 1015.6 0.6
26/06:00pm 12.4 5.7 5.6 63 3.2 WNW 30 46 16 25 1015.8 1015.5 0.0
26/05:45pm 14.5 8.0 4.5 51 4.7 WNW 28 65 15 35 1015.1 1014.8 0.0
26/05:30pm 15.7 10.2 1.8 39 6.2 NW 20 37 11 20 1014.7 1014.4 0.0
26/05:00pm 16.1 10.2 1.4 37 6.5 WNW 22 41 12 22 1014.5 1014.2 0.0
26/04:44pm 17.2 10.2 2.0 36 6.9 WNW 28 56 15 30 1014.5 1014.2 0.0
26/04:30pm 16.8 10.5 1.7 36 6.8 WNW 24 43 13 23 1014.7 1014.4 0.0
26/04:00pm 18.1 12.2 3.9 39 6.7 NW 24 46 13 25 1015.1 1014.8 0.0
26/03:32pm 17.5 10.9 4.1 41 6.3 WNW 28 48 15 26 1015.4 1015.1 0.0
26/03:30pm 16.8 10.3 2.8 39 6.4 WNW 26 48 14 26 1015.4 1015.1 0.0
26/03:00pm 16.3 9.7 2.3 39 6.3 WNW 26 52 14 28 1015.9 1015.6 0.0
26/02:30pm 17.5 12.0 4.1 41 6.3 WNW 22 37 12 20 1016.0 1015.7 0.0
26/02:00pm 16.4 11.1 5.1 47 5.4 NW 22 43 12 23 1016.1 1015.8 0.0
26/01:30pm 16.4 11.1 5.1 47 5.4 NW 22 41 12 22 1016.5 1016.2 0.0
26/01:08pm 15.4 8.8 4.2 47 5.2 WNW 28 50 15 27 1016.7 1016.4 0.0
26/01:00pm 16.0 10.4 5.3 49 5.1 WNW 24 43 13 23 1016.8 1016.5 0.0
26/12:30pm 15.6 10.3 5.2 50 5.0 WNW 22 41 12 22 1017.2 1016.9 0.0
26/12:00pm 14.2 9.3 5.0 54 4.3 WNW 20 37 11 20 1017.5 1017.2 0.0
26/11:30am 14.2 8.7 5.8 57 4.0 WNW 24 44 13 24 1017.5 1017.2 0.0
26/11:00am 12.9 6.6 5.6 61 3.4 WNW 28 46 15 25 1017.6 1017.3 0.0
26/10:30am 13.0 7.6 6.4 64 3.2 WNW 24 39 13 21 1017.5 1017.2 0.0
26/10:00am 12.6 8.2 6.4 66 3.0 WNW 19 33 10 18 1017.2 1016.9 0.0
26/09:30am 11.9 8.2 6.4 69 2.6 WNW 15 39 8 21 1017.2 1016.9 0.0

Other Formats:

Comma delimited format used in spreadsheet applications
http://www.bom.gov.au/fwo/IDV60801/IDV60801.99806.axf

JavaScript Object Notation format (JSON) in row-major order
http://www.bom.gov.au/fwo/IDV60801/IDV60801.99806.json